createdAt,value
2023-01-21T00:02:41.856Z,11.30
2023-01-21T00:12:47.544Z,11.60
2023-01-21T00:22:55.172Z,10.80
2023-01-21T00:33:01.111Z,9.80
2023-01-21T00:43:06.835Z,11.70
2023-01-21T00:53:12.532Z,10.80
2023-01-21T01:03:18.540Z,9.50
2023-01-21T01:13:24.309Z,10.00
2023-01-21T01:23:30.494Z,10.50
2023-01-21T01:33:36.583Z,9.70
2023-01-21T01:43:58.862Z,9.50
2023-01-21T01:54:05.886Z,14.80
2023-01-21T02:04:19.242Z,10.90
2023-01-21T02:14:25.030Z,11.90
2023-01-21T02:25:06.672Z,11.00
2023-01-21T02:35:20.076Z,9.40
2023-01-21T02:45:33.913Z,10.90
2023-01-21T02:55:42.024Z,7.80
2023-01-21T03:06:16.394Z,8.70
2023-01-21T03:16:46.711Z,8.30
2023-01-21T03:26:57.243Z,10.00
2023-01-21T03:37:08.800Z,10.20
2023-01-21T03:47:24.358Z,11.00
2023-01-21T03:57:30.293Z,10.50
2023-01-21T04:07:36.015Z,9.50
2023-01-21T04:17:41.771Z,8.30
2023-01-21T04:27:47.499Z,7.20
2023-01-21T04:37:53.290Z,7.00
2023-01-21T04:47:59.019Z,7.00
2023-01-21T04:58:04.787Z,6.50
2023-01-21T05:08:10.673Z,6.30
2023-01-21T05:18:16.732Z,6.30
2023-01-21T05:28:22.820Z,6.90
2023-01-21T05:38:28.922Z,6.30
2023-01-21T05:48:34.914Z,4.60
2023-01-21T05:58:40.970Z,4.80
2023-01-21T06:08:47.153Z,5.50
2023-01-21T06:28:58.579Z,7.10
2023-01-21T06:39:04.570Z,7.30
2023-01-21T06:49:10.475Z,7.00
2023-01-21T06:59:16.268Z,5.70
2023-01-21T07:09:22.175Z,8.20
2023-01-21T07:19:28.269Z,6.20
2023-01-21T07:29:34.103Z,6.20
2023-01-21T07:39:39.934Z,5.00
2023-01-21T07:49:45.909Z,6.30
2023-01-21T07:59:51.636Z,7.20
2023-01-21T08:09:57.346Z,4.40
2023-01-21T08:20:04.187Z,3.90
2023-01-21T08:30:11.889Z,4.30
2023-01-21T08:40:18.012Z,5.50
2023-01-21T08:50:24.101Z,6.00
2023-01-21T09:00:29.988Z,4.50
2023-01-21T09:10:53.627Z,4.30
2023-01-21T09:21:04.836Z,5.60
2023-01-21T09:31:12.598Z,4.90
2023-01-21T09:41:25.198Z,5.00
2023-01-21T09:51:43.507Z,5.50
2023-01-21T10:01:51.203Z,4.60
2023-01-21T10:12:16.637Z,4.10
2023-01-21T10:22:26.977Z,4.80
2023-01-21T10:32:33.799Z,4.40
2023-01-21T10:42:55.689Z,4.50
2023-01-21T10:53:08.058Z,4.90
2023-01-21T11:03:19.596Z,5.70
2023-01-21T11:13:26.172Z,4.90
2023-01-21T11:23:34.796Z,4.80
2023-01-21T11:33:42.302Z,4.20
2023-01-21T11:43:50.456Z,3.70
2023-01-21T11:54:19.726Z,3.50
2023-01-21T12:04:26.789Z,3.70
2023-01-21T12:14:45.233Z,3.20
2023-01-21T12:25:07.778Z,4.30
2023-01-21T12:35:19.407Z,3.30
2023-01-21T12:45:29.847Z,4.20
2023-01-21T12:55:50.085Z,3.90
2023-01-21T13:06:02.952Z,6.70
2023-01-21T13:16:11.452Z,3.80
2023-01-21T13:26:25.646Z,5.80
2023-01-21T13:36:46.805Z,6.90
2023-01-21T13:47:05.132Z,5.40
2023-01-21T13:57:40.147Z,5.40
2023-01-21T14:07:51.318Z,5.40
2023-01-21T14:18:13.840Z,7.70
2023-01-21T14:28:25.795Z,6.50
2023-01-21T14:38:43.536Z,9.80
2023-01-21T14:49:00.242Z,6.50
2023-01-21T14:59:17.801Z,11.50
2023-01-21T15:09:28.014Z,7.30
2023-01-21T15:19:35.691Z,9.20
2023-01-21T15:29:43.119Z,11.80
2023-01-21T15:39:52.253Z,11.60
2023-01-21T15:50:09.080Z,14.30
2023-01-21T16:00:31.423Z,13.40
2023-01-21T16:10:48.006Z,11.40
2023-01-21T16:20:56.949Z,13.40
2023-01-21T16:31:05.680Z,14.00
2023-01-21T16:41:27.541Z,16.00
2023-01-21T16:51:35.155Z,15.70
2023-01-21T17:01:41.400Z,14.40
2023-01-21T17:11:49.746Z,15.00
2023-01-21T17:22:01.505Z,17.30
2023-01-21T17:32:23.471Z,25.20
2023-01-21T17:42:38.899Z,23.00
2023-01-21T17:52:50.871Z,25.00
2023-01-21T18:02:56.736Z,24.40
2023-01-21T18:13:02.672Z,28.70
2023-01-21T18:23:11.479Z,29.20
2023-01-21T18:33:18.102Z,28.10
2023-01-21T18:43:24.052Z,25.40
2023-01-21T18:53:29.939Z,32.00
2023-01-21T19:03:35.763Z,33.10
2023-01-21T19:13:41.612Z,29.20
2023-01-21T19:23:47.713Z,29.90
2023-01-21T19:33:53.655Z,30.40
2023-01-21T19:43:59.613Z,33.40
2023-01-21T19:54:05.443Z,36.40
2023-01-21T20:04:12.128Z,28.90
2023-01-21T20:14:17.882Z,29.80
2023-01-21T20:24:23.865Z,27.50
2023-01-21T20:34:31.467Z,28.90
2023-01-21T20:44:37.277Z,30.70
2023-01-21T20:54:43.081Z,32.10
2023-01-21T21:04:48.987Z,35.10
2023-01-21T21:14:54.749Z,33.50
2023-01-21T21:25:00.616Z,34.30
2023-01-21T21:35:06.923Z,24.10
2023-01-21T21:45:13.537Z,29.00
2023-01-21T22:05:25.562Z,31.40
2023-01-21T22:15:31.392Z,30.00
2023-01-21T22:25:37.105Z,32.00
2023-01-21T22:35:45.155Z,29.80
2023-01-21T22:45:51.773Z,29.20
2023-01-21T22:55:59.238Z,32.30
2023-01-21T23:06:09.180Z,31.10
2023-01-21T23:16:18.458Z,27.40
2023-01-21T23:26:24.337Z,31.30
2023-01-21T23:36:30.499Z,38.60
2023-01-21T23:46:36.407Z,35.80
2023-01-21T23:56:42.461Z,37.60
